createdAt,value
2023-02-14T00:04:59.532Z,3.45
2023-02-14T00:10:06.854Z,4.80
2023-02-14T00:15:24.080Z,4.45
2023-02-14T00:20:31.298Z,4.10
2023-02-14T00:25:38.096Z,4.00
2023-02-14T00:30:47.650Z,3.85
2023-02-14T00:35:54.187Z,3.95
2023-02-14T00:41:01.230Z,3.90
2023-02-14T00:46:09.524Z,4.22
2023-02-14T00:51:18.657Z,3.70
2023-02-14T00:56:26.922Z,4.25
2023-02-14T01:01:35.023Z,4.25
2023-02-14T01:11:49.169Z,5.15
2023-02-14T01:16:57.228Z,5.25
2023-02-14T01:22:04.548Z,4.40
2023-02-14T01:27:11.680Z,4.68
2023-02-14T01:32:20.105Z,5.30
2023-02-14T01:37:26.927Z,5.03
2023-02-14T01:42:35.075Z,5.38
2023-02-14T01:47:46.409Z,5.80
2023-02-14T01:52:57.342Z,5.35
2023-02-14T01:58:08.114Z,4.35
2023-02-14T02:03:17.756Z,5.60
2023-02-14T02:08:24.618Z,4.80
2023-02-14T02:13:30.952Z,5.13
2023-02-14T02:18:58.783Z,4.75
2023-02-14T02:24:33.092Z,5.13
2023-02-14T02:30:23.910Z,5.32
2023-02-14T02:36:06.885Z,5.20
2023-02-14T02:41:24.906Z,5.10
2023-02-14T02:46:48.974Z,5.13
2023-02-14T02:52:17.324Z,4.90
2023-02-14T02:57:28.591Z,5.05
2023-02-14T03:03:00.427Z,5.25
2023-02-14T03:08:12.799Z,5.25
2023-02-14T03:14:09.967Z,5.43
2023-02-14T03:20:06.162Z,5.63
2023-02-14T03:25:33.094Z,5.70
2023-02-14T03:30:48.451Z,5.60
2023-02-14T03:36:03.259Z,5.43
2023-02-14T03:41:17.135Z,4.20
2023-02-14T03:46:29.775Z,5.28
2023-02-14T03:51:38.018Z,4.85
2023-02-14T03:56:52.424Z,5.70
2023-02-14T04:02:08.460Z,5.05
2023-02-14T04:07:18.440Z,5.75
2023-02-14T04:12:37.187Z,4.70
2023-02-14T04:18:02.313Z,5.22
2023-02-14T04:23:08.513Z,6.53
2023-02-14T04:28:17.199Z,5.68
2023-02-14T04:33:23.535Z,5.03
2023-02-14T04:38:29.915Z,5.97
2023-02-14T04:43:37.528Z,6.00
2023-02-14T04:48:45.240Z,5.47
2023-02-14T04:53:52.762Z,6.60
2023-02-14T04:59:01.095Z,5.35
2023-02-14T05:04:08.151Z,4.90
2023-02-14T05:09:14.765Z,5.70
2023-02-14T05:14:23.995Z,5.43
2023-02-14T05:19:30.459Z,6.32
2023-02-14T05:24:36.740Z,5.88
2023-02-14T05:29:44.471Z,5.50
2023-02-14T05:34:50.882Z,5.63
2023-02-14T05:39:57.246Z,5.97
2023-02-14T05:45:05.476Z,5.15
2023-02-14T05:50:13.249Z,5.43
2023-02-14T05:55:20.071Z,6.05
2023-02-14T06:00:31.175Z,5.30
2023-02-14T06:05:37.825Z,5.60
2023-02-14T06:10:44.015Z,5.78
2023-02-14T06:15:51.804Z,6.57
2023-02-14T06:20:58.464Z,5.53
2023-02-14T06:26:08.056Z,6.07
2023-02-14T06:36:26.134Z,5.90
2023-02-14T06:41:32.658Z,6.43
2023-02-14T06:46:40.439Z,6.85
2023-02-14T06:51:46.823Z,6.15
2023-02-14T06:56:53.303Z,5.53
2023-02-14T07:02:01.001Z,5.60
2023-02-14T07:07:07.401Z,6.18
2023-02-14T07:12:13.453Z,6.13
2023-02-14T07:17:21.164Z,5.75
2023-02-14T07:22:29.089Z,6.00
2023-02-14T07:32:44.053Z,5.32
2023-02-14T07:37:52.700Z,5.83
2023-02-14T07:43:01.217Z,6.55
2023-02-14T07:48:09.189Z,5.95
2023-02-14T07:53:16.178Z,6.68
2023-02-14T07:58:22.554Z,4.90
2023-02-14T08:03:30.314Z,5.70
2023-02-14T08:08:36.714Z,4.93
2023-02-14T08:13:43.635Z,6.18
2023-02-14T08:18:51.606Z,5.43
2023-02-14T08:23:59.087Z,6.13
2023-02-14T08:29:05.813Z,6.78
2023-02-14T08:34:13.726Z,5.85
2023-02-14T08:39:20.137Z,5.95
2023-02-14T08:44:26.796Z,6.05
2023-02-14T08:49:34.727Z,6.03
2023-02-14T08:54:41.493Z,5.80
2023-02-14T08:59:47.834Z,6.40
2023-02-14T09:04:55.984Z,6.93
2023-02-14T09:10:02.407Z,5.40
2023-02-14T09:15:11.556Z,6.13
2023-02-14T09:20:20.011Z,6.40
2023-02-14T09:25:26.360Z,6.50
2023-02-14T09:30:32.908Z,6.18
2023-02-14T09:35:40.949Z,6.30
2023-02-14T09:40:48.777Z,5.78
2023-02-14T09:45:58.376Z,6.85
2023-02-14T09:51:10.244Z,6.63
2023-02-14T09:56:27.641Z,6.65
2023-02-14T10:01:39.369Z,6.45
2023-02-14T10:06:55.726Z,5.00
2023-02-14T10:12:03.743Z,5.45
2023-02-14T10:17:17.394Z,5.28
2023-02-14T10:22:32.732Z,5.75
2023-02-14T10:27:42.745Z,6.60
2023-02-14T10:32:52.000Z,5.30
2023-02-14T10:38:11.964Z,7.22
2023-02-14T10:43:32.205Z,5.97
2023-02-14T10:48:53.347Z,6.05
2023-02-14T10:54:18.656Z,6.78
2023-02-14T10:59:29.304Z,8.48
2023-02-14T11:04:37.302Z,8.18
2023-02-14T11:09:45.238Z,6.97
2023-02-14T11:15:21.942Z,9.00
2023-02-14T11:20:31.707Z,7.97
2023-02-14T11:25:39.921Z,8.10
2023-02-14T11:30:49.765Z,7.27
2023-02-14T11:35:56.768Z,6.78
2023-02-14T11:41:06.465Z,7.28
2023-02-14T11:46:26.603Z,7.10
2023-02-14T11:51:37.537Z,6.82
2023-02-14T11:56:56.642Z,7.38
2023-02-14T12:02:15.661Z,6.50
2023-02-14T12:07:27.870Z,7.18
2023-02-14T12:12:36.356Z,7.53
2023-02-14T12:17:47.976Z,7.07
2023-02-14T12:23:03.192Z,7.10
2023-02-14T12:28:16.888Z,7.90
2023-02-14T12:33:26.293Z,7.93
2023-02-14T12:38:48.228Z,6.80
2023-02-14T12:43:58.682Z,8.23
2023-02-14T12:49:51.176Z,7.43
2023-02-14T12:55:19.888Z,6.95
2023-02-14T13:00:40.032Z,7.20
2023-02-14T13:05:59.415Z,7.43
2023-02-14T13:11:17.449Z,7.05
2023-02-14T13:16:36.197Z,7.40
2023-02-14T13:21:44.826Z,6.97
2023-02-14T13:26:55.744Z,7.60
2023-02-14T13:32:05.469Z,8.00
2023-02-14T13:37:17.603Z,7.72
2023-02-14T13:42:54.992Z,7.07
2023-02-14T13:48:08.522Z,6.28
2023-02-14T13:53:30.593Z,7.63
2023-02-14T13:58:37.880Z,6.97
2023-02-14T14:04:03.251Z,6.50
2023-02-14T14:09:13.741Z,7.10
2023-02-14T14:14:36.948Z,7.53
2023-02-14T14:19:47.101Z,7.05
2023-02-14T14:25:01.168Z,7.50
2023-02-14T14:30:19.654Z,7.45
2023-02-14T14:35:28.209Z,7.47
2023-02-14T14:40:37.535Z,7.60
2023-02-14T14:45:47.386Z,7.57
2023-02-14T14:50:55.677Z,7.28
2023-02-14T14:56:03.484Z,7.80
2023-02-14T15:01:21.682Z,7.75
2023-02-14T15:06:29.906Z,7.30
2023-02-14T15:11:54.662Z,6.97
2023-02-14T15:17:05.734Z,8.07
2023-02-14T15:22:23.226Z,9.40
2023-02-14T15:27:31.000Z,7.95
2023-02-14T15:32:39.648Z,9.50
2023-02-14T15:37:50.653Z,7.47
2023-02-14T15:42:58.627Z,9.02
2023-02-14T15:48:14.603Z,8.57
2023-02-14T15:53:45.233Z,8.35
2023-02-14T15:58:56.271Z,9.23
2023-02-14T16:04:07.419Z,9.35
2023-02-14T16:09:30.099Z,10.50
2023-02-14T16:14:42.763Z,9.60
2023-02-14T16:19:50.048Z,9.95
2023-02-14T16:25:00.117Z,10.25
2023-02-14T16:30:09.914Z,10.27
2023-02-14T16:35:23.841Z,10.15
2023-02-14T16:40:35.348Z,11.02
2023-02-14T16:45:42.763Z,9.90
2023-02-14T16:50:50.104Z,10.02
2023-02-14T16:56:02.022Z,11.50
2023-02-14T17:01:10.965Z,11.82
2023-02-14T17:11:30.972Z,12.05
2023-02-14T17:16:41.172Z,12.32
2023-02-14T17:21:52.575Z,12.60
2023-02-14T17:27:06.210Z,13.32
2023-02-14T17:32:15.513Z,11.75
2023-02-14T17:37:25.687Z,12.35
2023-02-14T17:42:38.668Z,12.43
2023-02-14T17:47:46.926Z,12.70
2023-02-14T17:52:58.246Z,14.07
2023-02-14T17:58:10.345Z,13.50
2023-02-14T18:03:19.428Z,13.20
2023-02-14T18:08:37.161Z,12.70
2023-02-14T18:13:50.128Z,12.20
2023-02-14T18:19:00.308Z,12.50
2023-02-14T18:24:11.468Z,13.25
2023-02-14T18:29:24.643Z,11.88
2023-02-14T18:34:38.630Z,11.25
2023-02-14T18:39:47.532Z,12.13
2023-02-14T18:44:59.146Z,11.63
2023-02-14T18:50:14.180Z,11.07
2023-02-14T18:55:27.998Z,12.07
2023-02-14T19:00:40.279Z,12.52
2023-02-14T19:05:57.184Z,11.98
2023-02-14T19:11:12.708Z,11.73
2023-02-14T19:16:30.242Z,12.10
2023-02-14T19:21:41.497Z,13.05
2023-02-14T19:26:50.427Z,12.93
2023-02-14T19:32:01.069Z,11.73
2023-02-14T19:37:21.976Z,12.20
2023-02-14T19:42:43.479Z,11.73
2023-02-14T19:47:58.483Z,12.63
2023-02-14T19:53:12.737Z,11.60
2023-02-14T19:58:23.557Z,11.52
2023-02-14T20:03:38.754Z,12.10
2023-02-14T20:08:48.677Z,11.45
2023-02-14T20:14:00.440Z,11.85
2023-02-14T20:19:20.264Z,10.88
2023-02-14T20:24:33.169Z,11.48
2023-02-14T20:29:44.443Z,11.90
2023-02-14T20:35:06.255Z,10.88
2023-02-14T20:40:20.306Z,14.18
2023-02-14T20:45:30.748Z,18.13
2023-02-14T20:50:49.560Z,13.35
2023-02-14T20:56:05.048Z,16.02
2023-02-14T21:01:16.494Z,18.55
2023-02-14T21:06:37.395Z,20.75
2023-02-14T21:11:47.761Z,21.63
2023-02-14T21:17:01.378Z,25.80
2023-02-14T21:22:14.393Z,25.80
2023-02-14T21:27:24.273Z,25.65
2023-02-14T21:32:36.284Z,21.67
2023-02-14T21:37:47.462Z,20.63
2023-02-14T21:42:57.878Z,22.48
2023-02-14T21:48:25.027Z,21.65
2023-02-14T21:53:37.854Z,22.90
2023-02-14T21:58:47.251Z,22.17
2023-02-14T22:03:58.193Z,20.77
2023-02-14T22:09:08.623Z,19.90
2023-02-14T22:14:17.036Z,21.65
2023-02-14T22:19:24.524Z,20.13
2023-02-14T22:24:32.513Z,20.98
2023-02-14T22:29:39.135Z,16.60
2023-02-14T22:34:46.850Z,21.08
2023-02-14T22:39:55.005Z,21.13
2023-02-14T22:45:01.540Z,20.92
2023-02-14T22:50:10.916Z,14.17
2023-02-14T22:55:19.562Z,19.25
2023-02-14T23:00:26.749Z,19.65
2023-02-14T23:05:33.274Z,20.35
2023-02-14T23:10:41.159Z,18.23
2023-02-14T23:16:05.033Z,16.98
2023-02-14T23:21:33.120Z,17.23
2023-02-14T23:26:41.159Z,16.77
2023-02-14T23:31:47.955Z,15.83
2023-02-14T23:36:57.876Z,24.77
2023-02-14T23:42:05.965Z,25.77
2023-02-14T23:47:13.244Z,27.40
2023-02-14T23:52:19.744Z,26.58
2023-02-14T23:57:28.933Z,24.73
